sim
Sign-in with your pilot id or email,
or register
Callsign
Passwort

Schedule Details

Flight Number: RYR8421
Departure: Edinburgh Airport (EGPH) at 12:45
Arrival: Fuerteventura Airport (GCFV) at 17:25
Route: Ryanair Passenger Schedule. Enter filed route here before submitting Pirep.

Weather Information
Getting current METAR information for EGPH 192150Z 34002KT CAVOK 09/08 Q1030
Getting current METAR information for GCFV 192130Z 35016KT 9999 FEW040 SCT048 18/12 Q1018

Schedule Frequency

Route Map